createdAt,value
2022-08-17T00:01:52.823Z,21.00
2022-08-17T00:10:11.232Z,21.15
2022-08-17T00:14:16.891Z,24.33
2022-08-17T00:19:06.203Z,23.50
2022-08-17T00:22:42.613Z,20.27
2022-08-17T00:26:45.809Z,21.08
2022-08-17T00:30:52.946Z,21.33
2022-08-17T00:34:56.412Z,23.63
2022-08-17T00:38:58.614Z,23.15
2022-08-17T00:43:13.785Z,20.50
2022-08-17T00:47:15.907Z,21.38
2022-08-17T00:51:33.637Z,20.33
2022-08-17T00:55:35.959Z,20.35
2022-08-17T00:59:42.947Z,22.77
2022-08-17T01:03:45.238Z,23.15
2022-08-17T01:07:51.100Z,21.45
2022-08-17T01:11:53.210Z,22.00
2022-08-17T01:16:01.896Z,24.00
2022-08-17T01:20:04.887Z,24.98
2022-08-17T01:24:07.892Z,25.77
2022-08-17T01:28:10.197Z,29.88
2022-08-17T01:32:33.051Z,22.15
2022-08-17T01:36:37.494Z,23.05
2022-08-17T01:40:47.194Z,29.23
2022-08-17T01:45:11.714Z,25.00
2022-08-17T01:49:13.918Z,25.65
2022-08-17T01:53:20.959Z,25.48
2022-08-17T01:57:23.110Z,24.80
2022-08-17T02:01:29.069Z,23.27
2022-08-17T02:05:31.971Z,22.20
2022-08-17T02:09:34.125Z,26.65
2022-08-17T02:13:38.070Z,28.27
2022-08-17T02:17:43.297Z,24.05
2022-08-17T02:21:47.847Z,25.63
2022-08-17T02:25:50.319Z,23.75
2022-08-17T02:29:52.586Z,22.10
2022-08-17T02:33:56.571Z,21.95
2022-08-17T02:38:05.707Z,22.50
2022-08-17T02:42:07.835Z,23.42
2022-08-17T02:46:10.161Z,19.10
2022-08-17T02:50:16.405Z,22.05
2022-08-17T02:54:40.717Z,22.17
2022-08-17T02:58:41.063Z,22.27
2022-08-17T03:02:45.939Z,28.92
2022-08-17T03:06:48.270Z,26.13
2022-08-17T03:10:50.830Z,25.33
2022-08-17T03:14:53.410Z,21.35
2022-08-17T03:18:55.733Z,24.58
2022-08-17T03:23:01.986Z,22.83
2022-08-17T03:27:05.454Z,25.85
2022-08-17T03:31:08.009Z,22.88
2022-08-17T03:35:12.674Z,21.35
2022-08-17T03:39:14.995Z,22.58
2022-08-17T03:43:18.806Z,26.98
2022-08-17T03:47:40.352Z,25.98
2022-08-17T03:52:22.530Z,23.08
2022-08-17T03:56:42.938Z,20.05
2022-08-17T04:00:46.350Z,22.30
2022-08-17T04:04:51.398Z,23.35
2022-08-17T04:08:53.928Z,23.50
2022-08-17T04:12:58.315Z,30.77
2022-08-17T04:17:00.495Z,21.38
2022-08-17T04:21:02.542Z,22.73
2022-08-17T04:25:17.160Z,32.75
2022-08-17T04:29:20.060Z,21.58
2022-08-17T04:33:25.169Z,21.15
2022-08-17T04:37:27.220Z,21.17
2022-08-17T04:41:47.974Z,20.80
2022-08-17T04:46:12.542Z,22.77
2022-08-17T04:50:15.126Z,21.77
2022-08-17T04:54:20.652Z,23.20
2022-08-17T04:58:23.002Z,23.58
2022-08-17T05:02:25.005Z,21.38
2022-08-17T05:06:28.888Z,22.88
2022-08-17T05:10:37.233Z,19.45
2022-08-17T05:14:48.393Z,18.45
2022-08-17T05:18:51.085Z,17.33
2022-08-17T05:22:56.145Z,17.23
2022-08-17T05:27:02.584Z,17.52
2022-08-17T05:31:08.823Z,16.65
2022-08-17T05:35:11.074Z,15.70
2022-08-17T05:39:17.037Z,16.50
2022-08-17T05:43:25.785Z,16.05
2022-08-17T05:47:28.730Z,16.02
2022-08-17T05:51:30.719Z,15.60
2022-08-17T05:55:48.499Z,16.77
2022-08-17T06:00:07.947Z,15.80
2022-08-17T06:04:53.696Z,13.57
2022-08-17T06:09:26.627Z,14.02
2022-08-17T06:13:50.475Z,13.00
2022-08-17T06:17:58.166Z,12.40
2022-08-17T06:22:02.906Z,11.57
2022-08-17T06:26:14.466Z,11.85
2022-08-17T06:30:25.626Z,12.48
2022-08-17T06:34:28.466Z,12.15
2022-08-17T06:38:57.593Z,11.27
2022-08-17T06:43:07.207Z,10.52
2022-08-17T06:47:28.121Z,9.88
2022-08-17T06:51:46.485Z,12.32
2022-08-17T06:55:59.066Z,9.30
2022-08-17T07:00:12.821Z,10.43
2022-08-17T07:04:23.325Z,10.43
2022-08-17T07:08:53.168Z,9.32
2022-08-17T07:13:03.424Z,9.82
2022-08-17T07:17:13.552Z,10.68
2022-08-17T07:21:40.910Z,9.95
2022-08-17T07:25:43.112Z,8.95
2022-08-17T07:29:48.163Z,8.27
2022-08-17T07:34:14.774Z,8.82
2022-08-17T07:38:26.832Z,9.02
2022-08-17T07:42:30.590Z,9.00
2022-08-17T07:47:05.441Z,8.77
2022-08-17T07:51:20.649Z,9.27
2022-08-17T07:55:35.094Z,8.63
2022-08-17T07:59:43.769Z,8.18
2022-08-17T08:03:46.475Z,7.20
2022-08-17T08:07:58.732Z,7.45
2022-08-17T08:12:33.456Z,7.65
2022-08-17T08:16:36.977Z,6.50
2022-08-17T08:20:54.554Z,7.53
2022-08-17T08:25:03.665Z,7.20
2022-08-17T08:29:39.866Z,7.55
2022-08-17T08:33:56.329Z,7.68
2022-08-17T08:38:20.120Z,7.82
2022-08-17T08:42:37.736Z,7.72
2022-08-17T08:46:46.003Z,9.32
2022-08-17T08:50:54.596Z,8.48
2022-08-17T08:55:07.746Z,8.38
2022-08-17T08:59:57.707Z,8.25
2022-08-17T09:04:19.992Z,7.93
2022-08-17T09:08:25.547Z,8.98
2022-08-17T09:12:47.776Z,8.88
2022-08-17T09:17:04.639Z,8.50
2022-08-17T09:21:33.813Z,8.13
2022-08-17T09:25:49.961Z,9.52
2022-08-17T09:29:59.046Z,8.60
2022-08-17T09:34:06.283Z,7.85
2022-08-17T09:38:32.398Z,8.55
2022-08-17T09:43:16.262Z,8.45
2022-08-17T09:47:42.231Z,10.25
2022-08-17T09:52:11.153Z,7.72
2022-08-17T09:56:45.973Z,8.13
2022-08-17T10:01:08.183Z,7.95
2022-08-17T10:05:28.895Z,7.10
2022-08-17T10:09:58.193Z,7.78
2022-08-17T10:14:36.703Z,8.27
2022-08-17T10:18:46.081Z,7.68
2022-08-17T10:23:29.493Z,7.22
2022-08-17T10:27:54.817Z,7.65
2022-08-17T10:32:04.730Z,7.65
2022-08-17T10:36:29.290Z,7.50
2022-08-17T10:40:51.660Z,7.13
2022-08-17T10:45:15.547Z,7.78
2022-08-17T10:49:17.818Z,8.38
2022-08-17T10:53:31.697Z,7.93
2022-08-17T10:57:43.803Z,7.82
2022-08-17T11:01:58.370Z,8.23
2022-08-17T11:06:09.887Z,7.28
2022-08-17T11:10:30.815Z,7.20
2022-08-17T11:15:00.988Z,6.28
2022-08-17T11:19:51.447Z,7.53
2022-08-17T11:23:59.515Z,7.60
2022-08-17T11:28:09.408Z,7.00
2022-08-17T11:32:27.978Z,7.43
2022-08-17T11:36:52.082Z,6.60
2022-08-17T11:41:11.874Z,6.25
2022-08-17T11:45:36.009Z,6.20
2022-08-17T11:50:07.250Z,5.80
2022-08-17T11:54:33.878Z,6.40
2022-08-17T11:58:45.424Z,5.53
2022-08-17T12:02:48.891Z,6.57
2022-08-17T12:07:20.825Z,5.50
2022-08-17T12:12:10.951Z,6.97
2022-08-17T12:15:56.617Z,6.57
2022-08-17T12:20:15.669Z,6.85
2022-08-17T12:24:37.358Z,6.75
2022-08-17T12:28:45.534Z,6.38
2022-08-17T12:32:48.597Z,6.63
2022-08-17T12:36:52.024Z,6.78
2022-08-17T12:40:57.990Z,5.65
2022-08-17T12:45:01.340Z,6.45
2022-08-17T12:49:26.479Z,7.70
2022-08-17T12:53:32.459Z,7.13
2022-08-17T12:57:52.052Z,6.68
2022-08-17T13:01:54.521Z,7.25
2022-08-17T13:06:03.674Z,7.13
2022-08-17T13:10:06.050Z,6.82
2022-08-17T13:14:10.103Z,6.50
2022-08-17T13:18:41.015Z,7.03
2022-08-17T13:22:44.686Z,7.07
2022-08-17T13:27:01.754Z,6.63
2022-08-17T13:31:28.213Z,6.57
2022-08-17T13:35:49.947Z,6.47
2022-08-17T13:40:21.487Z,6.20
2022-08-17T13:44:39.284Z,6.38
2022-08-17T13:48:41.602Z,6.85
2022-08-17T13:52:48.803Z,6.65
2022-08-17T13:57:02.121Z,6.82
2022-08-17T14:01:43.558Z,6.10
2022-08-17T14:05:47.333Z,6.65
2022-08-17T14:09:55.352Z,7.53
2022-08-17T14:18:00.925Z,7.30
2022-08-17T14:22:07.132Z,6.80
2022-08-17T14:26:09.312Z,7.28
2022-08-17T14:30:11.935Z,6.22
2022-08-17T14:34:14.438Z,6.22
2022-08-17T14:38:17.467Z,6.25
2022-08-17T14:42:20.636Z,6.68
2022-08-17T14:46:22.931Z,7.07
2022-08-17T14:50:24.980Z,6.82
2022-08-17T14:54:34.125Z,18.98
2022-08-17T14:58:36.760Z,9.57
2022-08-17T15:02:53.897Z,7.07
2022-08-17T15:06:55.960Z,6.82
2022-08-17T15:10:58.171Z,7.38
2022-08-17T15:15:01.160Z,7.75
2022-08-17T15:19:07.839Z,7.03
2022-08-17T15:23:18.865Z,7.20
2022-08-17T15:27:25.741Z,8.00
2022-08-17T15:31:34.765Z,7.53
2022-08-17T15:35:37.560Z,8.52
2022-08-17T15:39:39.639Z,7.93
2022-08-17T15:43:44.706Z,7.32
2022-08-17T15:47:46.799Z,8.57
2022-08-17T15:51:49.041Z,7.80
2022-08-17T15:55:51.048Z,8.93
2022-08-17T15:59:59.298Z,9.68
2022-08-17T16:04:06.553Z,9.60
2022-08-17T16:08:11.406Z,10.45
2022-08-17T16:12:19.571Z,9.85
2022-08-17T16:20:26.774Z,9.68
2022-08-17T16:24:29.223Z,10.55
2022-08-17T16:28:35.844Z,11.00
2022-08-17T16:32:39.188Z,10.23
2022-08-17T16:36:41.783Z,10.85
2022-08-17T16:40:58.225Z,9.80
2022-08-17T16:45:08.909Z,9.95
2022-08-17T16:49:35.658Z,11.13
2022-08-17T16:53:37.583Z,11.35
2022-08-17T16:57:47.301Z,11.60
2022-08-17T17:01:52.825Z,11.00
2022-08-17T17:06:18.860Z,10.65
2022-08-17T17:10:28.859Z,11.75
2022-08-17T17:14:43.214Z,11.45
2022-08-17T17:19:12.625Z,11.27
2022-08-17T17:23:35.297Z,11.98
2022-08-17T17:27:47.830Z,11.85
2022-08-17T17:32:21.118Z,12.48
2022-08-17T17:36:29.529Z,12.95
2022-08-17T17:44:56.666Z,13.05
2022-08-17T17:49:00.229Z,13.52
2022-08-17T17:53:09.473Z,13.68
2022-08-17T17:57:29.878Z,13.95
2022-08-17T18:01:48.793Z,14.95
2022-08-17T18:06:28.892Z,14.68
2022-08-17T18:11:00.231Z,14.23
2022-08-17T18:15:25.694Z,15.00
2022-08-17T18:19:31.628Z,15.38
2022-08-17T18:23:34.590Z,14.57
2022-08-17T18:27:39.944Z,15.65
2022-08-17T18:31:42.370Z,15.63
2022-08-17T18:35:59.327Z,16.98
2022-08-17T18:40:19.898Z,16.40
2022-08-17T18:44:26.840Z,16.07
2022-08-17T18:48:58.981Z,20.10
2022-08-17T18:53:30.233Z,16.75
2022-08-17T18:57:48.499Z,17.45
2022-08-17T19:01:58.867Z,17.23
2022-08-17T19:06:36.891Z,17.45
2022-08-17T19:10:46.392Z,19.27
2022-08-17T19:14:52.780Z,18.73
2022-08-17T19:19:14.735Z,19.65
2022-08-17T19:23:32.342Z,18.95
2022-08-17T19:27:46.431Z,20.17
2022-08-17T19:31:55.447Z,18.98
2022-08-17T19:36:09.951Z,22.10
2022-08-17T19:40:53.285Z,21.10
2022-08-17T19:45:03.586Z,19.67
2022-08-17T19:49:16.051Z,19.80
2022-08-17T19:53:42.000Z,19.35
2022-08-17T19:57:58.342Z,21.67
2022-08-17T20:02:09.185Z,21.73
2022-08-17T20:06:13.861Z,20.70
2022-08-17T20:10:54.527Z,20.52
2022-08-17T20:15:18.367Z,21.00
2022-08-17T20:19:36.309Z,18.73
2022-08-17T20:23:50.332Z,22.95
2022-08-17T20:28:27.983Z,22.70
2022-08-17T20:32:45.206Z,21.83
2022-08-17T20:37:09.019Z,23.27
2022-08-17T20:41:16.295Z,24.30
2022-08-17T20:45:21.413Z,19.27
2022-08-17T20:49:39.883Z,22.08
2022-08-17T20:54:06.634Z,23.07
2022-08-17T20:58:15.118Z,22.55
2022-08-17T21:02:22.202Z,25.88
2022-08-17T21:06:25.484Z,25.52
2022-08-17T21:10:27.654Z,24.45
2022-08-17T21:14:56.284Z,22.83
2022-08-17T21:19:22.664Z,23.25
2022-08-17T21:23:58.506Z,20.40
2022-08-17T21:29:00.218Z,21.65
2022-08-17T21:33:18.951Z,23.92
2022-08-17T21:37:24.819Z,28.83
2022-08-17T21:41:32.122Z,23.63
2022-08-17T21:45:42.648Z,22.08
2022-08-17T21:49:45.049Z,22.15
2022-08-17T21:53:58.157Z,26.63
2022-08-17T21:58:14.873Z,23.52
2022-08-17T22:02:24.925Z,25.08
2022-08-17T22:06:37.200Z,23.45
2022-08-17T22:10:43.795Z,24.13
2022-08-17T22:15:06.267Z,24.48
2022-08-17T22:19:09.190Z,23.67
2022-08-17T22:23:32.837Z,25.92
2022-08-17T22:27:55.969Z,21.15
2022-08-17T22:31:58.389Z,23.65
2022-08-17T22:36:22.858Z,26.90
2022-08-17T22:40:30.637Z,22.55
2022-08-17T22:44:44.971Z,27.20
2022-08-17T22:48:52.614Z,24.20
2022-08-17T22:53:21.212Z,21.85
2022-08-17T22:57:42.765Z,22.70
2022-08-17T23:02:06.396Z,27.02
2022-08-17T23:06:11.319Z,27.55
2022-08-17T23:10:14.808Z,22.42
2022-08-17T23:14:20.122Z,23.58
2022-08-17T23:18:23.623Z,22.95
2022-08-17T23:22:26.029Z,24.67
2022-08-17T23:26:30.730Z,29.20
2022-08-17T23:30:36.950Z,22.63
2022-08-17T23:34:41.108Z,22.67
2022-08-17T23:38:44.875Z,27.50
2022-08-17T23:42:47.362Z,22.98
2022-08-17T23:46:51.412Z,24.17
2022-08-17T23:50:57.490Z,23.50
2022-08-17T23:55:07.309Z,29.50
2022-08-17T23:59:09.588Z,25.33
